Time;durP1;ratioP1;P1;durP2;ratioP2;P2;SDS_P1;SDS_P2;PMS_P1;PMS_P2;Temp;Humidity;BMP_temperature;BMP_pressure;BME280_temperature;BME280_humidity;BME280_pressure;Samples;Min_cycle;Max_cycle;Signal;HPM_P1;HPM_P2
2022/09/16 00:00:22;;;;;;;3.40;2.50;;;;;;;;;;5031702;28;20687;-75
2022/09/16 00:02:48;;;;;;;6.43;2.80;;;;;;;;;;5030830;28;20545;-76
2022/09/16 00:05:14;;;;;;;3.60;2.37;;;;;;;;;;5014452;28;20214;-76
2022/09/16 00:07:40;;;;;;;5.97;2.70;;;;;;;;;;5030685;28;20174;-75
2022/09/16 00:10:06;;;;;;;4.20;3.03;;;;;;;;;;5017310;28;20178;-75
2022/09/16 00:12:32;;;;;;;7.33;3.33;;;;;;;;;;5018192;28;20190;-75
2022/09/16 00:14:58;;;;;;;4.40;3.10;;;;;;;;;;5034631;28;20336;-75
2022/09/16 00:17:24;;;;;;;4.83;3.10;;;;;;;;;;5018252;28;20182;-75
2022/09/16 00:19:50;;;;;;;4.27;2.87;;;;;;;;;;5017970;28;20289;-75
2022/09/16 00:22:17;;;;;;;6.30;3.20;;;;;;;;;;5018087;28;20185;-75
2022/09/16 00:24:42;;;;;;;4.93;2.63;;;;;;;;;;5034191;28;20277;-75
2022/09/16 00:27:09;;;;;;;4.37;3.00;;;;;;;;;;5018057;28;20277;-75
2022/09/16 00:29:35;;;;;;;4.33;3.13;;;;;;;;;;5034141;28;20185;-75
2022/09/16 00:32:01;;;;;;;5.13;3.27;;;;;;;;;;5017777;28;20186;-76
2022/09/16 00:34:27;;;;;;;6.27;3.00;;;;;;;;;;5034088;28;20181;-75
2022/09/16 00:36:53;;;;;;;4.83;3.30;;;;;;;;;;5017621;28;20273;-75
2022/09/16 00:39:19;;;;;;;5.60;3.20;;;;;;;;;;5017354;28;20202;-75
2022/09/16 00:41:45;;;;;;;7.63;3.40;;;;;;;;;;5017830;28;20185;-75
2022/09/16 00:44:29;;;;;;;5.87;3.30;;;;;;;;;;5034039;28;20178;-75
2022/09/16 00:46:55;;;;;;;6.07;3.30;;;;;;;;;;5033974;28;20170;-76
2022/09/16 00:49:26;;;;;;;5.60;3.20;;;;;;;;;;5017243;28;20193;-76
2022/09/16 00:51:54;;;;;;;4.37;3.40;;;;;;;;;;5033709;28;20183;-74
2022/09/16 00:54:21;;;;;;;5.37;3.63;;;;;;;;;;5033911;28;20205;-75
2022/09/16 00:56:48;;;;;;;5.10;3.90;;;;;;;;;;5017130;28;20178;-75
2022/09/16 00:59:16;;;;;;;6.87;4.23;;;;;;;;;;5017395;28;20222;-75
2022/09/16 01:01:43;;;;;;;6.23;3.93;;;;;;;;;;5033714;28;20175;-75
2022/09/16 01:04:35;;;;;;;6.60;3.97;;;;;;;;;;5033549;28;20174;-75
2022/09/16 01:07:01;;;;;;;6.50;3.70;;;;;;;;;;5029133;28;20579;-75
2022/09/16 01:09:28;;;;;;;4.43;3.63;;;;;;;;;;5033460;28;20660;-76
2022/09/16 01:11:54;;;;;;;5.73;3.43;;;;;;;;;;5017160;28;20210;-75
2022/09/16 01:17:22;;;;;;;5.70;3.30;;;;;;;;;;4962052;28;20214;-75
2022/09/16 01:20:07;;;;;;;5.13;3.20;;;;;;;;;;5015950;28;20684;-75
2022/09/16 01:22:43;;;;;;;5.57;2.80;;;;;;;;;;5033249;28;20182;-75
2022/09/16 01:25:27;;;;;;;6.07;3.20;;;;;;;;;;5033004;28;20202;-75
2022/09/16 01:28:01;;;;;;;4.30;2.80;;;;;;;;;;5034606;28;20209;-75
2022/09/16 01:30:36;;;;;;;5.43;2.80;;;;;;;;;;5033026;28;20202;-74
2022/09/16 01:33:03;;;;;;;5.07;3.10;;;;;;;;;;5033082;28;20185;-75
2022/09/16 01:35:47;;;;;;;5.97;3.63;;;;;;;;;;5034244;28;20194;-75
2022/09/16 01:38:13;;;;;;;4.20;3.63;;;;;;;;;;5032935;28;20170;-75
2022/09/16 01:40:39;;;;;;;5.10;3.70;;;;;;;;;;5032572;28;20218;-75
2022/09/16 01:43:20;;;;;;;4.57;3.30;;;;;;;;;;5032963;28;20174;-75
2022/09/16 01:45:48;;;;;;;4.10;3.50;;;;;;;;;;5034085;28;20214;-75
2022/09/16 01:48:18;;;;;;;8.00;4.23;;;;;;;;;;5032519;28;20179;-76
2022/09/16 01:51:06;;;;;;;5.93;3.00;;;;;;;;;;5033818;28;20171;-75
2022/09/16 01:53:36;;;;;;;4.70;3.17;;;;;;;;;;5032656;28;20183;-75
2022/09/16 01:56:12;;;;;;;4.17;3.30;;;;;;;;;;5032427;28;20200;-75
2022/09/16 01:58:44;;;;;;;4.93;3.13;;;;;;;;;;5032620;28;20633;-75
2022/09/16 02:01:31;;;;;;;5.50;3.50;;;;;;;;;;5032462;28;20179;-75
2022/09/16 02:04:02;;;;;;;5.47;2.80;;;;;;;;;;5032559;28;20554;-75
2022/09/16 02:06:30;;;;;;;4.07;3.07;;;;;;;;;;5016145;28;20574;-75
2022/09/16 02:09:07;;;;;;;4.47;2.90;;;;;;;;;;5031962;28;20178;-75
2022/09/16 02:11:35;;;;;;;4.97;3.17;;;;;;;;;;5016260;28;20186;-76
2022/09/16 02:14:06;;;;;;;4.57;2.97;;;;;;;;;;5015945;28;20182;-75
2022/09/16 02:16:35;;;;;;;5.33;2.93;;;;;;;;;;5035181;28;20199;-76
2022/09/16 02:19:05;;;;;;;4.60;3.10;;;;;;;;;;5033672;28;20296;-77
2022/09/16 02:21:32;;;;;;;4.87;3.13;;;;;;;;;;5033753;28;20257;-78
2022/09/16 02:24:00;;;;;;;5.00;3.00;;;;;;;;;;5017739;28;20273;-77
2022/09/16 02:26:29;;;;;;;3.87;3.30;;;;;;;;;;5034946;28;20274;-78
2022/09/16 02:28:55;;;;;;;4.53;3.13;;;;;;;;;;5033956;28;20177;-78
2022/09/16 02:31:25;;;;;;;4.57;3.23;;;;;;;;;;5034966;28;20648;-77
2022/09/16 02:33:53;;;;;;;5.53;3.30;;;;;;;;;;5034611;28;20179;-78
2022/09/16 02:36:20;;;;;;;4.40;3.10;;;;;;;;;;5033800;28;20225;-78
2022/09/16 02:38:49;;;;;;;3.90;3.13;;;;;;;;;;5033367;28;20186;-78
2022/09/16 02:41:15;;;;;;;5.40;3.20;;;;;;;;;;5017548;28;20183;-78
2022/09/16 02:43:42;;;;;;;4.27;2.90;;;;;;;;;;5033558;28;20685;-78
2022/09/16 02:46:12;;;;;;;5.77;3.73;;;;;;;;;;5033119;28;20194;-78
2022/09/16 02:48:53;;;;;;;4.50;3.43;;;;;;;;;;5033802;28;20179;-78
2022/09/16 02:51:19;;;;;;;4.90;3.30;;;;;;;;;;5034015;28;20185;-78
2022/09/16 02:53:47;;;;;;;5.20;3.70;;;;;;;;;;5033198;28;20234;-77
2022/09/16 02:56:21;;;;;;;5.43;3.57;;;;;;;;;;5034792;28;20273;-78
2022/09/16 02:58:47;;;;;;;7.03;3.97;;;;;;;;;;5033480;28;20182;-78
2022/09/16 03:01:13;;;;;;;4.37;3.40;;;;;;;;;;5016913;28;20281;-77
2022/09/16 03:03:40;;;;;;;4.03;3.33;;;;;;;;;;5034461;28;20166;-77
2022/09/16 03:06:06;;;;;;;6.47;3.90;;;;;;;;;;5033206;28;20214;-77
2022/09/16 03:08:32;;;;;;;5.77;3.50;;;;;;;;;;5033073;28;20312;-78
2022/09/16 03:11:01;;;;;;;4.43;3.60;;;;;;;;;;5016708;28;20183;-78
2022/09/16 03:13:34;;;;;;;4.87;3.63;;;;;;;;;;5017175;28;20186;-77
2022/09/16 03:16:03;;;;;;;5.37;3.80;;;;;;;;;;5033072;28;20221;-78
2022/09/16 03:18:32;;;;;;;4.37;3.43;;;;;;;;;;5033691;28;20174;-78
2022/09/16 03:21:09;;;;;;;5.20;3.63;;;;;;;;;;5032724;28;20214;-78
2022/09/16 03:23:43;;;;;;;3.87;3.53;;;;;;;;;;5033467;28;20201;-78
2022/09/16 03:26:09;;;;;;;4.23;3.43;;;;;;;;;;5016895;28;20190;-77
2022/09/16 03:28:35;;;;;;;4.87;3.30;;;;;;;;;;5034046;28;20176;-77
2022/09/16 03:31:10;;;;;;;6.23;3.30;;;;;;;;;;5034206;28;20209;-78
2022/09/16 03:33:46;;;;;;;3.43;2.97;;;;;;;;;;5033571;28;20170;-78
2022/09/16 03:36:13;;;;;;;4.17;3.00;;;;;;;;;;5032623;28;20228;-78
2022/09/16 03:38:40;;;;;;;3.63;2.97;;;;;;;;;;5034253;28;20177;-77
2022/09/16 03:41:07;;;;;;;3.43;2.60;;;;;;;;;;5032537;28;20235;-78
2022/09/16 03:43:33;;;;;;;4.43;2.40;;;;;;;;;;5033667;28;20236;-77
2022/09/16 03:45:59;;;;;;;3.40;2.50;;;;;;;;;;5020902;28;20202;-78
2022/09/16 03:48:25;;;;;;;4.40;2.50;;;;;;;;;;5020691;28;20173;-78
2022/09/16 03:50:51;;;;;;;4.07;2.30;;;;;;;;;;5037014;28;20240;-78
2022/09/16 03:53:17;;;;;;;2.83;2.40;;;;;;;;;;5036619;28;20190;-77
2022/09/16 03:55:43;;;;;;;3.73;2.57;;;;;;;;;;5036865;28;20202;-77
2022/09/16 03:58:09;;;;;;;4.47;2.30;;;;;;;;;;5037860;28;20185;-78
2022/09/16 04:00:36;;;;;;;4.03;2.20;;;;;;;;;;5020065;28;20214;-78
2022/09/16 04:03:01;;;;;;;4.37;2.10;;;;;;;;;;5020394;28;20190;-78
2022/09/16 04:05:27;;;;;;;3.00;2.00;;;;;;;;;;5036238;28;20213;-78
2022/09/16 04:07:53;;;;;;;2.87;2.00;;;;;;;;;;5037963;28;20171;-77
2022/09/16 04:10:19;;;;;;;2.63;2.00;;;;;;;;;;5020178;28;20182;-78
2022/09/16 04:12:45;;;;;;;6.13;2.13;;;;;;;;;;5037904;28;20177;-78
2022/09/16 04:15:11;;;;;;;3.97;2.83;;;;;;;;;;5036822;28;20199;-77
2022/09/16 04:17:38;;;;;;;4.57;3.00;;;;;;;;;;5036834;28;20178;-77
2022/09/16 04:20:06;;;;;;;7.43;3.80;;;;;;;;;;5036778;28;20264;-77
2022/09/16 04:22:32;;;;;;;4.73;3.20;;;;;;;;;;5036533;28;20664;-77
2022/09/16 04:24:58;;;;;;;5.47;2.87;;;;;;;;;;5036080;28;20197;-77
2022/09/16 04:27:24;;;;;;;5.27;3.20;;;;;;;;;;5019855;28;20211;-77
2022/09/16 04:29:50;;;;;;;3.97;2.80;;;;;;;;;;5035596;28;20183;-77
2022/09/16 04:32:16;;;;;;;3.83;2.30;;;;;;;;;;5036337;28;20265;-76
2022/09/16 04:34:42;;;;;;;4.13;2.40;;;;;;;;;;5035860;28;20267;-77
2022/09/16 04:37:08;;;;;;;4.00;2.10;;;;;;;;;;5019782;28;20244;-78
2022/09/16 04:39:34;;;;;;;4.17;2.23;;;;;;;;;;5036092;28;20689;-77
2022/09/16 04:42:00;;;;;;;2.47;2.03;;;;;;;;;;5019445;28;20178;-77
2022/09/16 04:44:29;;;;;;;4.00;2.23;;;;;;;;;;5036169;28;20175;-78
2022/09/16 04:46:54;;;;;;;4.47;2.07;;;;;;;;;;5019666;28;20269;-78
2022/09/16 04:49:20;;;;;;;3.23;2.00;;;;;;;;;;5035568;28;20220;-78
2022/09/16 04:51:47;;;;;;;2.57;2.00;;;;;;;;;;5019648;28;20189;-78
2022/09/16 04:54:13;;;;;;;4.20;1.90;;;;;;;;;;5018813;28;20204;-78
2022/09/16 04:56:39;;;;;;;7.40;2.30;;;;;;;;;;5018636;28;20221;-77
2022/09/16 04:59:05;;;;;;;8.10;2.47;;;;;;;;;;5018470;28;20291;-78
2022/09/16 05:01:33;;;;;;;3.00;2.10;;;;;;;;;;5034844;28;20178;-78
2022/09/16 05:04:01;;;;;;;4.33;2.30;;;;;;;;;;5018137;28;20222;-77
2022/09/16 05:06:28;;;;;;;3.27;2.53;;;;;;;;;;5079679;22;20265;-79
2022/09/16 05:08:55;;;;;;;2.93;2.37;;;;;;;;;;5076523;28;20187;-80
2022/09/16 05:11:22;;;;;;;3.33;2.50;;;;;;;;;;5076118;28;20175;-79
2022/09/16 05:13:48;;;;;;;2.80;1.90;;;;;;;;;;5076762;28;20173;-79
2022/09/16 05:16:15;;;;;;;2.10;1.90;;;;;;;;;;5076458;28;20193;-79
2022/09/16 05:18:41;;;;;;;3.53;1.77;;;;;;;;;;5076578;28;20228;-79
2022/09/16 05:21:12;;;;;;;2.47;1.87;;;;;;;;;;5075925;28;20181;-79
2022/09/16 05:23:39;;;;;;;4.63;1.80;;;;;;;;;;5076155;28;20165;-79
2022/09/16 05:26:11;;;;;;;3.37;1.80;;;;;;;;;;5076505;28;20217;-79
2022/09/16 05:28:37;;;;;;;4.57;1.73;;;;;;;;;;5073883;28;20218;-78
2022/09/16 05:31:10;;;;;;;3.73;1.80;;;;;;;;;;5075376;28;20176;-79
2022/09/16 05:33:36;;;;;;;3.10;1.83;;;;;;;;;;5075950;28;20169;-79
2022/09/16 05:36:03;;;;;;;2.40;1.60;;;;;;;;;;5074404;28;20197;-79
2022/09/16 05:38:29;;;;;;;4.37;1.90;;;;;;;;;;5072900;28;20180;-79
2022/09/16 05:40:58;;;;;;;3.83;1.83;;;;;;;;;;5072494;28;20215;-79
2022/09/16 05:43:24;;;;;;;5.73;2.00;;;;;;;;;;5056086;28;20211;-79
2022/09/16 05:45:53;;;;;;;3.80;1.73;;;;;;;;;;5056287;28;20631;-79
2022/09/16 05:48:19;;;;;;;4.80;1.73;;;;;;;;;;5074080;28;20173;-79
2022/09/16 05:50:52;;;;;;;4.00;1.67;;;;;;;;;;5056642;28;20192;-79
2022/09/16 05:53:18;;;;;;;3.03;1.87;;;;;;;;;;5058639;28;20185;-80
2022/09/16 05:55:54;;;;;;;2.37;1.50;;;;;;;;;;5074856;28;20208;-80
2022/09/16 05:58:19;;;;;;;3.13;1.70;;;;;;;;;;5074327;28;20247;-80
2022/09/16 06:00:45;;;;;;;4.10;1.80;;;;;;;;;;5058230;28;20697;-79
2022/09/16 06:03:12;;;;;;;4.10;1.93;;;;;;;;;;5076101;28;20181;-79
2022/09/16 06:05:38;;;;;;;3.80;2.10;;;;;;;;;;5058947;28;20213;-80
2022/09/16 06:08:04;;;;;;;3.23;2.20;;;;;;;;;;5058374;28;20177;-80
2022/09/16 06:10:30;;;;;;;3.60;2.10;;;;;;;;;;5075186;28;20306;-80
2022/09/16 06:12:56;;;;;;;4.07;2.20;;;;;;;;;;5074920;28;20206;-80
2022/09/16 06:15:22;;;;;;;3.27;2.43;;;;;;;;;;5057266;28;20317;-79
2022/09/16 06:17:48;;;;;;;3.07;2.17;;;;;;;;;;5057873;28;20173;-79
2022/09/16 06:20:14;;;;;;;4.03;2.23;;;;;;;;;;5076123;28;20710;-79
2022/09/16 06:22:40;;;;;;;2.90;2.43;;;;;;;;;;5057929;28;20197;-79
2022/09/16 06:25:07;;;;;;;3.83;1.97;;;;;;;;;;5057590;28;20255;-79
2022/09/16 06:27:33;;;;;;;2.27;1.90;;;;;;;;;;5074755;28;20182;-79
2022/09/16 06:29:59;;;;;;;4.03;2.60;;;;;;;;;;5057735;28;20177;-79
2022/09/16 06:32:24;;;;;;;2.23;1.70;;;;;;;;;;5057813;28;20535;-79
2022/09/16 06:34:51;;;;;;;3.17;1.97;;;;;;;;;;5057390;28;20197;-79
2022/09/16 06:37:17;;;;;;;6.97;1.60;;;;;;;;;;5057682;28;20177;-79
2022/09/16 06:39:43;;;;;;;4.17;1.60;;;;;;;;;;5074028;28;20203;-79
2022/09/16 06:42:09;;;;;;;1.70;1.60;;;;;;;;;;5057761;28;20278;-79
2022/09/16 06:44:35;;;;;;;2.40;1.80;;;;;;;;;;5074003;28;20827;-79
2022/09/16 06:47:01;;;;;;;4.20;1.80;;;;;;;;;;5074243;28;20180;-79
2022/09/16 06:49:27;;;;;;;3.10;1.90;;;;;;;;;;5074371;28;20701;-79
2022/09/16 06:51:53;;;;;;;7.43;2.10;;;;;;;;;;5057561;28;20560;-79
2022/09/16 06:54:19;;;;;;;4.50;2.60;;;;;;;;;;5057667;28;20177;-79
2022/09/16 06:56:45;;;;;;;2.80;1.70;;;;;;;;;;5057940;28;20205;-78
2022/09/16 06:59:13;;;;;;;3.27;1.70;;;;;;;;;;5074443;28;20677;-79
2022/09/16 07:01:39;;;;;;;3.40;1.60;;;;;;;;;;5057981;28;20638;-78
2022/09/16 07:04:07;;;;;;;2.87;1.40;;;;;;;;;;5074270;28;20209;-78
2022/09/16 07:06:33;;;;;;;4.50;1.43;;;;;;;;;;5073519;28;20205;-79
2022/09/16 07:08:59;;;;;;;2.53;1.63;;;;;;;;;;5056406;28;20183;-78
2022/09/16 07:11:25;;;;;;;5.73;1.70;;;;;;;;;;5057128;28;20554;-78
2022/09/16 07:13:52;;;;;;;8.03;1.90;;;;;;;;;;5073513;28;20628;-78
2022/09/16 07:16:20;;;;;;;2.73;1.40;;;;;;;;;;5073631;28;20732;-78
2022/09/16 07:18:47;;;;;;;1.80;1.33;;;;;;;;;;5072868;28;20647;-78
2022/09/16 07:21:17;;;;;;;2.90;1.60;;;;;;;;;;5057337;28;20184;-79
2022/09/16 07:23:44;;;;;;;2.13;1.60;;;;;;;;;;5057042;28;20268;-78
2022/09/16 07:26:12;;;;;;;2.77;1.60;;;;;;;;;;5074088;28;20266;-78
2022/09/16 07:28:38;;;;;;;3.97;1.50;;;;;;;;;;5073869;28;20199;-79
2022/09/16 07:31:06;;;;;;;2.30;1.50;;;;;;;;;;5057085;28;20183;-79
2022/09/16 07:33:36;;;;;;;3.47;1.30;;;;;;;;;;5056703;28;20267;-79
2022/09/16 07:36:02;;;;;;;2.70;1.80;;;;;;;;;;5056971;28;20224;-79
2022/09/16 07:38:29;;;;;;;4.43;1.70;;;;;;;;;;5073809;28;20169;-79
2022/09/16 07:40:55;;;;;;;3.23;1.70;;;;;;;;;;5071974;28;20227;-79
2022/09/16 07:43:21;;;;;;;4.50;2.00;;;;;;;;;;5055692;28;20173;-79
2022/09/16 07:45:54;;;;;;;2.23;1.67;;;;;;;;;;5055830;28;20254;-79
2022/09/16 07:48:20;;;;;;;3.13;1.50;;;;;;;;;;5072522;28;20316;-80
2022/09/16 07:50:54;;;;;;;2.83;1.70;;;;;;;;;;5071716;28;20266;-80
2022/09/16 07:53:20;;;;;;;4.80;1.80;;;;;;;;;;5072013;28;20186;-80
2022/09/16 07:55:46;;;;;;;2.27;1.60;;;;;;;;;;5055650;28;20300;-80
2022/09/16 07:58:12;;;;;;;2.47;1.40;;;;;;;;;;5072380;28;20199;-80
2022/09/16 08:00:38;;;;;;;2.17;1.50;;;;;;;;;;5071665;28;20203;-80
2022/09/16 08:03:05;;;;;;;2.43;1.60;;;;;;;;;;5055762;28;20174;-80
2022/09/16 08:05:31;;;;;;;2.60;1.40;;;;;;;;;;5072628;28;20281;-79
2022/09/16 08:07:57;;;;;;;3.87;1.57;;;;;;;;;;5072716;28;20170;-79
2022/09/16 08:10:23;;;;;;;1.70;1.23;;;;;;;;;;5072171;28;20226;-80
2022/09/16 08:12:49;;;;;;;2.80;1.53;;;;;;;;;;5056006;28;20184;-79
2022/09/16 08:15:15;;;;;;;4.80;1.40;;;;;;;;;;5053261;28;20215;-79
2022/09/16 08:17:41;;;;;;;3.83;1.43;;;;;;;;;;5046789;28;20190;-79
2022/09/16 08:20:07;;;;;;;4.30;1.93;;;;;;;;;;5052169;28;20200;-79
2022/09/16 08:22:34;;;;;;;3.57;1.40;;;;;;;;;;5058763;28;20174;-79
2022/09/16 08:25:00;;;;;;;1.97;1.43;;;;;;;;;;5072284;28;20250;-80
2022/09/16 08:27:26;;;;;;;2.53;1.53;;;;;;;;;;5055554;28;20181;-80
2022/09/16 08:29:52;;;;;;;3.03;1.33;;;;;;;;;;5056346;28;20216;-80
2022/09/16 08:32:18;;;;;;;2.87;1.30;;;;;;;;;;5058988;28;20207;-80
2022/09/16 08:34:44;;;;;;;2.93;1.40;;;;;;;;;;5075751;28;20201;-80
2022/09/16 08:37:10;;;;;;;1.50;1.30;;;;;;;;;;5075494;28;20177;-80
2022/09/16 08:39:36;;;;;;;1.63;1.20;;;;;;;;;;5058721;28;20262;-80
2022/09/16 08:42:23;;;;;;;2.23;1.20;;;;;;;;;;5058961;28;20181;-80
2022/09/16 08:44:49;;;;;;;2.90;1.43;;;;;;;;;;5071551;28;20253;-80
2022/09/16 08:47:41;;;;;;;3.10;1.20;;;;;;;;;;5075750;28;20652;-80
2022/09/16 08:50:12;;;;;;;3.30;1.17;;;;;;;;;;5074889;28;20187;-80
2022/09/16 08:52:39;;;;;;;1.50;1.40;;;;;;;;;;5076768;28;20638;-80
2022/09/16 08:55:10;;;;;;;2.20;1.30;;;;;;;;;;5075398;28;20197;-80
2022/09/16 08:57:40;;;;;;;2.80;1.70;;;;;;;;;;5075047;28;20750;-80
2022/09/16 09:00:11;;;;;;;1.73;1.17;;;;;;;;;;5075100;28;20200;-80
2022/09/16 09:02:46;;;;;;;3.17;1.60;;;;;;;;;;5075084;28;20234;-81
2022/09/16 09:05:25;;;;;;;3.60;1.50;;;;;;;;;;5074527;28;20704;-81
2022/09/16 09:07:53;;;;;;;5.77;1.40;;;;;;;;;;5074510;28;20612;-81
2022/09/16 09:10:38;;;;;;;3.80;1.20;;;;;;;;;;5074904;28;20181;-80
2022/09/16 09:13:13;;;;;;;2.40;1.30;;;;;;;;;;5075987;28;20244;-80
2022/09/16 09:15:49;;;;;;;2.20;1.13;;;;;;;;;;5074949;28;20192;-81
2022/09/16 09:18:15;;;;;;;4.07;1.23;;;;;;;;;;5074666;28;20180;-81
2022/09/16 09:20:41;;;;;;;3.00;1.27;;;;;;;;;;5075710;28;20564;-80
2022/09/16 09:23:26;;;;;;;1.73;1.20;;;;;;;;;;5076140;28;20177;-80
2022/09/16 09:25:55;;;;;;;3.40;1.63;;;;;;;;;;5076625;28;20201;-80
2022/09/16 09:28:22;;;;;;;3.90;1.40;;;;;;;;;;5076595;28;20260;-79
2022/09/16 09:31:04;;;;;;;1.93;1.30;;;;;;;;;;5077137;28;20551;-80
2022/09/16 09:33:38;;;;;;;1.83;1.00;;;;;;;;;;5076484;28;20177;-80
2022/09/16 09:36:15;;;;;;;2.33;1.30;;;;;;;;;;5076987;28;20201;-79
2022/09/16 09:38:50;;;;;;;1.20;1.10;;;;;;;;;;5076060;28;20180;-80
2022/09/16 09:41:41;;;;;;;3.03;1.20;;;;;;;;;;5074746;28;20211;-79
2022/09/16 09:44:25;;;;;;;2.07;1.30;;;;;;;;;;5075808;28;20678;-80
2022/09/16 09:46:57;;;;;;;1.90;1.20;;;;;;;;;;5075898;28;20173;-79
2022/09/16 09:49:23;;;;;;;4.93;1.40;;;;;;;;;;5074752;28;20173;-79
2022/09/16 09:51:53;;;;;;;2.17;1.20;;;;;;;;;;5075801;28;20173;-80
2022/09/16 09:54:26;;;;;;;2.07;1.30;;;;;;;;;;5075339;28;20173;-79
2022/09/16 09:56:59;;;;;;;2.23;1.20;;;;;;;;;;5075131;28;20180;-80
2022/09/16 09:59:51;;;;;;;1.87;1.33;;;;;;;;;;5074414;28;20200;-80
2022/09/16 10:02:19;;;;;;;2.03;1.20;;;;;;;;;;5072603;28;20242;-80
2022/09/16 10:04:45;;;;;;;2.07;1.50;;;;;;;;;;5058068;28;20200;-80
2022/09/16 10:07:13;;;;;;;3.23;1.47;;;;;;;;;;5074591;28;20180;-80
2022/09/16 10:09:46;;;;;;;4.10;1.80;;;;;;;;;;5074826;28;20181;-79
2022/09/16 10:12:12;;;;;;;1.90;1.43;;;;;;;;;;5076842;28;20187;-79
2022/09/16 10:14:38;;;;;;;5.00;2.30;;;;;;;;;;5059268;28;20761;-79
2022/09/16 10:17:13;;;;;;;4.80;2.10;;;;;;;;;;5059951;28;20188;-80
2022/09/16 10:19:55;;;;;;;3.33;1.53;;;;;;;;;;5075514;28;20192;-80
2022/09/16 10:22:26;;;;;;;1.77;1.47;;;;;;;;;;5075583;28;20250;-81
2022/09/16 10:24:54;;;;;;;2.23;1.30;;;;;;;;;;5073328;28;20257;-80
2022/09/16 10:27:20;;;;;;;1.10;1.00;;;;;;;;;;5054444;28;20193;-80
2022/09/16 10:30:01;;;;;;;2.37;1.27;;;;;;;;;;5055210;28;20184;-81
2022/09/16 10:32:27;;;;;;;1.63;1.10;;;;;;;;;;5054046;28;20162;-80
2022/09/16 10:34:54;;;;;;;1.50;1.33;;;;;;;;;;5053656;28;20224;-80
2022/09/16 10:37:20;;;;;;;1.30;1.20;;;;;;;;;;5037298;28;20276;-80
2022/09/16 10:39:51;;;;;;;2.37;1.30;;;;;;;;;;5052875;28;20227;-81
2022/09/16 10:42:28;;;;;;;2.70;1.30;;;;;;;;;;5052355;28;20590;-81
2022/09/16 10:45:13;;;;;;;2.83;1.40;;;;;;;;;;5035784;28;20193;-80
2022/09/16 10:47:39;;;;;;;1.50;1.40;;;;;;;;;;5053048;28;20208;-80
2022/09/16 10:50:06;;;;;;;2.50;1.40;;;;;;;;;;5036384;28;20185;-80
2022/09/16 10:52:43;;;;;;;2.03;1.30;;;;;;;;;;5053123;28;20234;-80
2022/09/16 10:55:17;;;;;;;2.47;1.37;;;;;;;;;;5037005;28;20584;-80
2022/09/16 10:57:43;;;;;;;3.27;1.20;;;;;;;;;;5053354;28;20165;-80
2022/09/16 11:00:19;;;;;;;1.90;1.20;;;;;;;;;;5036447;28;20205;-80
2022/09/16 11:02:58;;;;;;;1.70;1.20;;;;;;;;;;5053312;28;20176;-80
2022/09/16 11:05:23;;;;;;;3.03;1.20;;;;;;;;;;5076491;22;20225;-77
2022/09/16 11:08:05;;;;;;;2.60;1.10;;;;;;;;;;5051941;28;20684;-77
2022/09/16 11:10:37;;;;;;;2.00;1.20;;;;;;;;;;5050543;28;20173;-77
2022/09/16 11:13:18;;;;;;;2.40;1.00;;;;;;;;;;5048366;28;20174;-77
2022/09/16 11:16:04;;;;;;;1.23;1.00;;;;;;;;;;5048534;28;20195;-77
2022/09/16 11:18:49;;;;;;;1.60;1.10;;;;;;;;;;5044966;28;20174;-77
2022/09/16 11:21:32;;;;;;;2.40;1.10;;;;;;;;;;5052681;28;20193;-77
2022/09/16 11:24:25;;;;;;;1.20;1.10;;;;;;;;;;5051726;28;20215;-77
2022/09/16 11:26:59;;;;;;;2.00;1.20;;;;;;;;;;5036801;28;20206;-77
2022/09/16 11:29:25;;;;;;;2.30;1.10;;;;;;;;;;5051871;28;20174;-77
2022/09/16 11:32:03;;;;;;;1.13;1.00;;;;;;;;;;5051697;28;20272;-78
2022/09/16 11:34:30;;;;;;;1.17;1.00;;;;;;;;;;5052150;28;20547;-79
2022/09/16 11:37:08;;;;;;;1.67;1.17;;;;;;;;;;5051277;28;20212;-77
2022/09/16 11:39:34;;;;;;;0.97;0.87;;;;;;;;;;5051145;28;20296;-77
2022/09/16 11:42:26;;;;;;;2.47;1.07;;;;;;;;;;5051139;28;20604;-77
2022/09/16 11:44:59;;;;;;;1.57;1.13;;;;;;;;;;5036616;28;20192;-77
2022/09/16 11:47:31;;;;;;;2.10;1.10;;;;;;;;;;5051303;28;20683;-77
2022/09/16 11:49:57;;;;;;;1.37;1.23;;;;;;;;;;5051065;28;20215;-77
2022/09/16 11:52:32;;;;;;;2.23;1.20;;;;;;;;;;5051822;28;20188;-78
2022/09/16 11:55:18;;;;;;;1.13;1.00;;;;;;;;;;5051725;28;20639;-83
2022/09/16 11:57:48;;;;;;;1.60;1.40;;;;;;;;;;5047542;28;20700;-76
2022/09/16 12:00:16;;;;;;;2.10;1.20;;;;;;;;;;5047695;28;20264;-76
2022/09/16 12:03:00;;;;;;;1.97;1.27;;;;;;;;;;5032314;28;20170;-76
2022/09/16 12:05:38;;;;;;;2.80;1.23;;;;;;;;;;5049937;28;20206;-76
2022/09/16 12:08:40;;;;;;;2.10;1.40;;;;;;;;;;5055012;28;20178;-76
2022/09/16 12:11:08;;;;;;;1.83;1.23;;;;;;;;;;4997495;28;20177;-76
2022/09/16 12:13:37;;;;;;;2.00;1.10;;;;;;;;;;5047512;28;20185;-76
2022/09/16 12:16:05;;;;;;;1.47;1.37;;;;;;;;;;5038168;28;20197;-76
2022/09/16 12:18:32;;;;;;;2.23;1.37;;;;;;;;;;5055045;28;20176;-76
2022/09/16 12:21:19;;;;;;;1.80;1.70;;;;;;;;;;5054599;28;20209;-76
2022/09/16 12:23:48;;;;;;;2.50;1.37;;;;;;;;;;5044988;28;20186;-76
2022/09/16 12:26:17;;;;;;;1.47;1.37;;;;;;;;;;5037981;28;20267;-76
2022/09/16 12:28:46;;;;;;;1.87;1.37;;;;;;;;;;5054665;28;20256;-76
2022/09/16 12:31:33;;;;;;;3.30;1.40;;;;;;;;;;5054560;28;20655;-76
2022/09/16 12:34:02;;;;;;;2.40;1.40;;;;;;;;;;5054431;28;20176;-76
2022/09/16 12:36:32;;;;;;;2.60;1.50;;;;;;;;;;5054620;28;20193;-76
2022/09/16 12:38:59;;;;;;;3.07;1.87;;;;;;;;;;5037936;28;20230;-76
2022/09/16 12:41:44;;;;;;;3.40;1.70;;;;;;;;;;5054318;28;20184;-76
2022/09/16 12:44:29;;;;;;;1.10;1.00;;;;;;;;;;5055476;28;20632;-76
2022/09/16 12:47:13;;;;;;;2.10;1.20;;;;;;;;;;5054175;28;20197;-76
2022/09/16 12:49:52;;;;;;;1.30;0.97;;;;;;;;;;5054293;28;20182;-76
2022/09/16 12:52:36;;;;;;;1.80;1.10;;;;;;;;;;5054673;28;20235;-75
2022/09/16 12:55:05;;;;;;;1.37;1.10;;;;;;;;;;5054407;28;20173;-76
2022/09/16 12:58:10;;;;;;;1.20;1.00;;;;;;;;;;5037207;28;20663;-76
2022/09/16 13:00:43;;;;;;;1.57;1.10;;;;;;;;;;4957915;28;20200;-75
2022/09/16 13:03:20;;;;;;;1.53;1.10;;;;;;;;;;4958121;28;20169;-75
2022/09/16 13:05:49;;;;;;;1.60;1.20;;;;;;;;;;4997566;28;20217;-75
2022/09/16 13:08:23;;;;;;;2.30;1.10;;;;;;;;;;5053904;28;20207;-75
2022/09/16 13:10:57;;;;;;;1.40;1.00;;;;;;;;;;5053895;28;20173;-76
2022/09/16 13:13:31;;;;;;;1.30;1.20;;;;;;;;;;5054014;28;20210;-78
2022/09/16 13:15:58;;;;;;;1.83;1.30;;;;;;;;;;5055606;28;20200;-78
2022/09/16 13:18:26;;;;;;;1.30;1.20;;;;;;;;;;5053827;28;20180;-78
2022/09/16 13:20:59;;;;;;;2.00;1.33;;;;;;;;;;5053759;28;20197;-78
2022/09/16 13:23:34;;;;;;;2.00;1.30;;;;;;;;;;5053968;28;20188;-78
2022/09/16 13:26:01;;;;;;;2.37;1.30;;;;;;;;;;5055038;28;20197;-78
2022/09/16 13:28:37;;;;;;;1.57;1.20;;;;;;;;;;5054316;28;20178;-78
2022/09/16 13:31:18;;;;;;;1.40;1.30;;;;;;;;;;5055066;28;20769;-78
2022/09/16 13:33:46;;;;;;;1.17;1.07;;;;;;;;;;5053974;28;20194;-78
2022/09/16 13:36:21;;;;;;;1.57;1.23;;;;;;;;;;5053694;28;20205;-78
2022/09/16 13:38:51;;;;;;;1.50;1.23;;;;;;;;;;5053450;28;20289;-78
2022/09/16 13:41:36;;;;;;;1.30;1.20;;;;;;;;;;5053765;28;20281;-78
2022/09/16 13:44:22;;;;;;;2.47;1.27;;;;;;;;;;5054040;28;20212;-78
2022/09/16 13:46:48;;;;;;;1.30;1.20;;;;;;;;;;5036819;28;20304;-78
2022/09/16 13:49:26;;;;;;;1.73;1.30;;;;;;;;;;5053764;28;20205;-78
2022/09/16 13:51:52;;;;;;;1.40;1.30;;;;;;;;;;5053558;28;20584;-78
2022/09/16 13:54:18;;;;;;;1.77;1.40;;;;;;;;;;5053227;28;20174;-78
2022/09/16 13:56:59;;;;;;;3.03;1.33;;;;;;;;;;5053286;28;20235;-78
2022/09/16 13:59:37;;;;;;;1.23;1.10;;;;;;;;;;5054007;28;20193;-78
2022/09/16 14:02:03;;;;;;;1.53;1.30;;;;;;;;;;5052935;28;20173;-78
2022/09/16 14:04:29;;;;;;;2.27;1.20;;;;;;;;;;5054094;28;20245;-78
2022/09/16 14:07:17;;;;;;;2.27;1.50;;;;;;;;;;5052785;28;20209;-79
2022/09/16 14:09:50;;;;;;;1.80;1.30;;;;;;;;;;5049810;28;20228;-78
2022/09/16 14:12:20;;;;;;;4.90;1.63;;;;;;;;;;5034105;28;20163;-78
2022/09/16 14:14:47;;;;;;;5.67;1.90;;;;;;;;;;5033070;28;20257;-79
2022/09/16 14:17:18;;;;;;;4.03;2.30;;;;;;;;;;5049695;28;20520;-79
2022/09/16 14:19:45;;;;;;;3.10;1.83;;;;;;;;;;5032932;28;20194;-79
2022/09/16 14:22:21;;;;;;;3.40;1.90;;;;;;;;;;5033852;28;20182;-78
2022/09/16 14:24:47;;;;;;;3.87;2.00;;;;;;;;;;5032575;28;20257;-79
2022/09/16 14:27:22;;;;;;;2.87;2.00;;;;;;;;;;5032507;28;20736;-78
2022/09/16 14:30:01;;;;;;;3.83;2.37;;;;;;;;;;5032500;28;20229;-78
2022/09/16 14:32:29;;;;;;;2.50;1.87;;;;;;;;;;5049075;28;20209;-78
2022/09/16 14:34:57;;;;;;;1.47;1.33;;;;;;;;;;5032576;28;20595;-78
2022/09/16 14:37:25;;;;;;;1.50;1.40;;;;;;;;;;5049735;28;20182;-78
2022/09/16 14:39:51;;;;;;;3.20;1.73;;;;;;;;;;5049299;28;20297;-78
2022/09/16 14:42:20;;;;;;;1.87;1.67;;;;;;;;;;5049238;28;20185;-77
2022/09/16 14:44:47;;;;;;;2.13;1.60;;;;;;;;;;5032272;28;20170;-78
2022/09/16 14:47:25;;;;;;;1.97;1.57;;;;;;;;;;5048928;28;20182;-78
2022/09/16 14:49:54;;;;;;;2.13;1.70;;;;;;;;;;5048893;28;20224;-77
2022/09/16 14:52:21;;;;;;;3.17;1.63;;;;;;;;;;5032456;28;20182;-77
2022/09/16 14:54:47;;;;;;;2.70;1.63;;;;;;;;;;5032091;28;20228;-78
2022/09/16 14:57:24;;;;;;;1.83;1.73;;;;;;;;;;5048684;28;20640;-77
2022/09/16 14:59:52;;;;;;;2.20;1.90;;;;;;;;;;5032421;28;20201;-79
2022/09/16 15:02:21;;;;;;;2.43;2.00;;;;;;;;;;5033093;28;20181;-78
2022/09/16 15:04:50;;;;;;;2.73;2.10;;;;;;;;;;5032885;28;20178;-78